Strona główna
METAR-TAF:

METAR-TAF

Lotnisko :

Orange County Airport

Montgomery, Nowy Jork, Stany Zjednoczone

Szerokość geograficzna: 41-30-33N, Długość geograficzna: 074-15-54W, wysokość: 111 m

Aktualna obserwacja pogody

Raport powstał 27 minut temu, godzina 21:54 UTC
Wiatr 5 kt od zachodnio-północny zachód
Temperatura 23°C
Wilgotność 41%
Ciśnienie 1011 hPa
Widzialność: 16.1 km
Rozproszone chmury na wysokości 9000 ft
Zachmurzenie całkowite na wysokości 11000 ft

METAR: KMGJ 302154Z AUTO 29005KT 10SM SCT090 OVC110 23/09 A2985 RMK AO2 SLP105 T02330094

czas: 18:21 (22:21 UTC)


TAF: brakujący

Obserwacja i prognoza pogody dla ponad 4000 lotnisk (raport METAR i TAF).

Dostępne stacje oznaczono żółtymi i czerwonymi punktami na mapie.

Najedź kursorem aby zobaczyć nazwę stacji.

Kliknij aby zobaczyć obserwacje i prognozy pogody.

Aby zmienić mapę: kliknij na zielony przycisk z czarnym krzyżykiem, aby powiększyć; na zielony przycisk z myślnikiem, aby pomniejszyć; na zielone strzałki, aby przejść do map sąsiednich.


METAR-TAF: